createdAt,value
2022-08-22T00:02:03.147Z,14.80
2022-08-22T00:02:47.240Z,15.80
2022-08-22T00:02:58.481Z,20.90
2022-08-22T00:03:08.631Z,20.10
2022-08-22T00:04:39.147Z,15.40
2022-08-22T00:07:12.315Z,14.70
2022-08-22T00:09:41.937Z,15.30
2022-08-22T00:12:08.779Z,14.70
2022-08-22T00:14:39.888Z,14.50
2022-08-22T00:17:22.479Z,15.00
2022-08-22T00:24:46.256Z,13.90
2022-08-22T00:27:15.484Z,13.90
2022-08-22T00:29:54.470Z,14.00
2022-08-22T00:32:29.411Z,14.00
2022-08-22T00:35:02.978Z,14.10
2022-08-22T00:37:39.551Z,14.00
2022-08-22T00:40:29.784Z,13.90
2022-08-22T00:43:19.720Z,14.00
2022-08-22T00:46:05.214Z,14.20
2022-08-22T00:48:53.172Z,14.00
2022-08-22T00:51:45.025Z,14.00
2022-08-22T00:54:33.013Z,14.00
2022-08-22T00:57:18.583Z,13.80
2022-08-22T00:59:45.178Z,13.60
2022-08-22T01:02:26.237Z,13.70
2022-08-22T01:05:11.679Z,13.70
2022-08-22T01:07:41.308Z,13.80
2022-08-22T01:10:26.674Z,13.80
2022-08-22T01:13:13.554Z,13.60
2022-08-22T01:15:40.587Z,14.30
2022-08-22T01:18:10.229Z,13.80
2022-08-22T01:20:52.368Z,13.60
2022-08-22T01:23:31.323Z,13.50
2022-08-22T01:26:16.998Z,13.50
2022-08-22T01:28:52.157Z,13.50
2022-08-22T01:31:28.161Z,13.40
2022-08-22T01:34:13.333Z,13.50
2022-08-22T01:36:40.439Z,13.60
2022-08-22T01:39:33.464Z,14.60
2022-08-22T01:42:12.610Z,13.60
2022-08-22T01:44:44.788Z,13.60
2022-08-22T01:47:13.666Z,13.60
2022-08-22T01:49:44.146Z,13.40
2022-08-22T01:52:29.654Z,14.60
2022-08-22T01:55:00.010Z,13.30
2022-08-22T01:57:27.528Z,13.20
2022-08-22T01:59:55.968Z,12.70
2022-08-22T02:02:27.544Z,12.80
2022-08-22T02:05:31.638Z,13.80
2022-08-22T02:08:16.911Z,12.80
2022-08-22T02:10:43.477Z,12.70
2022-08-22T02:13:10.085Z,12.70
2022-08-22T02:15:43.884Z,12.80
2022-08-22T02:18:14.420Z,12.90
2022-08-22T02:21:05.218Z,12.90
2022-08-22T02:23:44.071Z,13.10
2022-08-22T02:26:16.869Z,13.10
2022-08-22T02:29:07.657Z,13.50
2022-08-22T02:31:34.269Z,13.00
2022-08-22T02:34:03.348Z,12.90
2022-08-22T02:36:41.005Z,13.00
2022-08-22T02:39:13.588Z,12.90
2022-08-22T02:41:59.999Z,13.30
2022-08-22T02:44:29.441Z,12.90
2022-08-22T02:47:02.688Z,12.70
2022-08-22T02:49:32.530Z,12.60
2022-08-22T02:52:17.065Z,12.60
2022-08-22T02:54:43.722Z,12.50
2022-08-22T02:57:28.159Z,12.60
2022-08-22T03:00:31.062Z,12.70
2022-08-22T03:02:59.471Z,12.60
2022-08-22T03:05:40.106Z,12.70
2022-08-22T03:08:19.025Z,12.40
2022-08-22T03:11:01.472Z,12.20
2022-08-22T03:13:48.196Z,12.20
2022-08-22T03:16:22.359Z,12.20
2022-08-22T03:18:52.124Z,12.20
2022-08-22T03:21:30.776Z,12.20
2022-08-22T03:24:17.469Z,12.10
2022-08-22T03:26:44.480Z,12.10
2022-08-22T03:29:19.672Z,12.70
2022-08-22T03:32:05.118Z,12.20
2022-08-22T03:34:32.092Z,12.30
2022-08-22T03:37:19.273Z,12.40
2022-08-22T03:39:48.982Z,12.10
2022-08-22T03:42:35.696Z,12.20
2022-08-22T03:45:02.361Z,12.30
2022-08-22T03:47:38.574Z,12.40
2022-08-22T03:50:05.150Z,12.40
2022-08-22T03:52:34.865Z,12.40
2022-08-22T03:55:04.579Z,12.30
2022-08-22T03:57:44.429Z,12.10
2022-08-22T04:00:18.398Z,11.90
2022-08-22T04:03:00.258Z,12.00
2022-08-22T04:05:43.680Z,12.20
2022-08-22T04:08:29.079Z,12.20
2022-08-22T04:10:56.484Z,12.10
2022-08-22T04:13:42.805Z,12.10
2022-08-22T04:16:21.732Z,12.20
2022-08-22T04:19:08.003Z,12.20
2022-08-22T04:21:53.059Z,12.20
2022-08-22T04:24:19.645Z,12.20
2022-08-22T04:27:05.220Z,12.00
2022-08-22T04:29:35.382Z,12.10
2022-08-22T04:32:07.008Z,12.10
2022-08-22T04:34:37.630Z,12.00
2022-08-22T04:37:30.535Z,12.00
2022-08-22T04:40:04.799Z,12.00
2022-08-22T04:42:34.519Z,11.90
2022-08-22T04:45:08.458Z,11.80
2022-08-22T04:47:54.310Z,11.80
2022-08-22T04:50:34.913Z,11.70
2022-08-22T04:53:20.549Z,11.90
2022-08-22T04:56:07.627Z,12.00
2022-08-22T04:58:43.699Z,12.00
2022-08-22T05:01:25.653Z,12.00
2022-08-22T05:04:01.236Z,11.90
2022-08-22T05:06:30.948Z,11.80
2022-08-22T05:09:07.521Z,11.50
2022-08-22T05:11:34.667Z,11.70
2022-08-22T05:14:07.102Z,11.60
2022-08-22T05:16:37.103Z,12.00
2022-08-22T05:19:15.722Z,12.00
2022-08-22T05:21:44.360Z,11.90
2022-08-22T05:24:13.891Z,11.80
2022-08-22T05:26:42.296Z,12.10
2022-08-22T05:29:10.739Z,12.10
2022-08-22T05:31:41.502Z,12.10
2022-08-22T05:34:12.365Z,12.20
2022-08-22T05:36:41.487Z,12.80
2022-08-22T05:39:27.890Z,12.40
2022-08-22T05:41:55.932Z,12.40
2022-08-22T05:44:24.807Z,12.40
2022-08-22T05:46:57.403Z,12.60
2022-08-22T05:49:38.841Z,12.60
2022-08-22T05:52:05.514Z,12.90
2022-08-22T05:54:34.630Z,13.00
2022-08-22T05:57:20.994Z,13.30
2022-08-22T05:59:51.713Z,13.30
2022-08-22T06:02:23.860Z,13.80
2022-08-22T06:04:59.708Z,13.70
2022-08-22T06:07:35.484Z,13.70
2022-08-22T06:10:05.159Z,13.80
2022-08-22T06:12:31.737Z,14.10
2022-08-22T06:15:11.835Z,14.20
2022-08-22T06:17:48.025Z,14.30
2022-08-22T06:20:18.726Z,14.80
2022-08-22T06:22:51.469Z,14.70
2022-08-22T06:27:47.012Z,15.10
2022-08-22T06:30:15.181Z,17.10
2022-08-22T06:32:59.351Z,15.50
2022-08-22T06:37:56.855Z,15.90
2022-08-22T06:47:53.578Z,16.80
2022-08-22T06:50:25.909Z,16.80
2022-08-22T06:53:08.016Z,17.00
2022-08-22T06:55:36.380Z,17.20
2022-08-22T06:58:04.778Z,17.60
2022-08-22T07:00:32.807Z,17.10
2022-08-22T07:03:07.596Z,19.00
2022-08-22T07:05:36.393Z,17.90
2022-08-22T07:08:22.918Z,18.00
2022-08-22T07:10:56.235Z,18.00
2022-08-22T07:13:24.171Z,18.20
2022-08-22T07:18:19.600Z,18.70
2022-08-22T07:20:55.042Z,20.10
2022-08-22T07:23:28.917Z,19.00
2022-08-22T07:25:58.664Z,19.10
2022-08-22T07:28:31.760Z,19.20
2022-08-22T07:31:24.518Z,19.40
2022-08-22T07:33:54.091Z,19.70
2022-08-22T07:36:22.969Z,20.00
2022-08-22T07:39:02.308Z,20.10
2022-08-22T07:41:36.696Z,20.20
2022-08-22T07:44:03.391Z,20.30
2022-08-22T07:46:38.504Z,20.30
2022-08-22T07:49:21.081Z,20.40
2022-08-22T07:54:30.499Z,20.70
2022-08-22T07:57:18.134Z,20.90
2022-08-22T07:59:52.086Z,20.90
2022-08-22T08:06:08.987Z,21.30
2022-08-22T08:11:07.280Z,21.50
2022-08-22T08:13:35.620Z,21.30
2022-08-22T08:16:04.620Z,22.40
2022-08-22T08:18:34.011Z,22.10
2022-08-22T08:21:03.782Z,22.10
2022-08-22T08:23:39.581Z,22.40
2022-08-22T08:26:21.333Z,22.50
2022-08-22T08:28:49.421Z,22.50
2022-08-22T08:31:19.159Z,23.00
2022-08-22T08:33:48.519Z,22.80
2022-08-22T08:36:18.478Z,24.20
2022-08-22T08:38:49.489Z,23.10
2022-08-22T08:41:22.505Z,22.60
2022-08-22T08:43:58.087Z,23.30
2022-08-22T08:46:43.368Z,23.60
2022-08-22T08:49:33.727Z,23.00
2022-08-22T08:52:17.780Z,23.20
2022-08-22T08:55:19.868Z,23.20
2022-08-22T08:58:06.533Z,23.20
2022-08-22T09:00:33.981Z,23.40
2022-08-22T09:03:18.342Z,23.50
2022-08-22T09:05:55.806Z,23.90
2022-08-22T09:08:29.367Z,24.20
2022-08-22T09:10:57.136Z,24.40
2022-08-22T09:13:42.628Z,24.60
2022-08-22T09:16:39.160Z,24.60
2022-08-22T09:19:16.092Z,24.60
2022-08-22T09:21:48.760Z,24.20
2022-08-22T09:24:34.042Z,24.50
2022-08-22T09:27:02.332Z,24.50
2022-08-22T09:32:52.179Z,24.80
2022-08-22T09:35:24.059Z,25.00
2022-08-22T09:37:53.831Z,25.70
2022-08-22T09:40:29.363Z,24.70
2022-08-22T09:42:59.503Z,24.90
2022-08-22T09:45:50.189Z,24.90
2022-08-22T09:48:33.253Z,24.90
2022-08-22T09:51:32.277Z,25.30
2022-08-22T09:53:59.539Z,25.20
2022-08-22T09:56:35.635Z,25.50
2022-08-22T09:59:21.167Z,25.00
2022-08-22T10:01:53.232Z,25.30
2022-08-22T10:04:38.871Z,25.20
2022-08-22T10:07:25.245Z,26.10
2022-08-22T10:10:04.604Z,26.00
2022-08-22T10:12:36.570Z,26.70
2022-08-22T10:17:46.965Z,26.20
2022-08-22T10:20:25.823Z,25.80
2022-08-22T10:23:08.159Z,26.10
2022-08-22T10:25:48.560Z,26.70
2022-08-22T10:28:28.449Z,26.30
2022-08-22T10:31:07.192Z,26.30
2022-08-22T10:33:54.972Z,26.30
2022-08-22T10:36:27.591Z,26.40
2022-08-22T10:38:55.364Z,27.20
2022-08-22T10:41:36.158Z,27.30
2022-08-22T10:44:12.088Z,25.70
2022-08-22T10:46:46.233Z,25.70
2022-08-22T10:49:19.579Z,25.70
2022-08-22T10:51:52.343Z,25.70
2022-08-22T10:54:37.877Z,26.00
2022-08-22T10:57:23.491Z,26.00
2022-08-22T11:00:03.972Z,25.90
2022-08-22T11:02:35.727Z,25.90
2022-08-22T11:05:28.834Z,25.80
2022-08-22T11:08:14.745Z,25.80
2022-08-22T11:11:01.274Z,25.70
2022-08-22T11:15:56.341Z,25.60
2022-08-22T11:18:23.075Z,26.30
2022-08-22T11:20:50.184Z,27.60
2022-08-22T11:23:37.447Z,28.90
2022-08-22T11:26:13.348Z,27.20
2022-08-22T11:28:52.554Z,28.20
2022-08-22T11:31:19.875Z,27.40
2022-08-22T11:33:50.190Z,27.00
2022-08-22T11:36:19.865Z,26.60
2022-08-22T11:39:01.140Z,26.40
2022-08-22T11:41:27.899Z,26.20
2022-08-22T11:44:03.661Z,26.30
2022-08-22T11:51:34.248Z,30.40
2022-08-22T11:56:43.477Z,31.00
2022-08-22T11:59:18.920Z,31.60
2022-08-22T12:01:49.419Z,32.10
2022-08-22T12:06:56.327Z,32.50
2022-08-22T12:14:27.015Z,32.00
2022-08-22T12:17:00.596Z,32.80
2022-08-22T12:20:05.655Z,32.60
2022-08-22T12:22:41.584Z,30.90
2022-08-22T12:25:27.524Z,31.40
2022-08-22T12:27:55.254Z,31.40
2022-08-22T12:30:30.351Z,30.40
2022-08-22T12:33:13.169Z,30.60
2022-08-22T12:35:40.590Z,30.60
2022-08-22T12:38:28.423Z,29.70
2022-08-22T12:40:54.038Z,30.40
2022-08-22T12:43:23.241Z,32.10
2022-08-22T12:45:50.721Z,30.80
2022-08-22T12:48:36.540Z,31.20
2022-08-22T12:51:20.278Z,29.30
2022-08-22T12:54:04.528Z,29.20
2022-08-22T12:56:41.960Z,31.20
2022-08-22T12:59:23.063Z,31.70
2022-08-22T13:01:51.858Z,33.50
2022-08-22T13:06:52.653Z,33.90
2022-08-22T13:09:28.561Z,34.00
2022-08-22T13:12:12.246Z,32.10
2022-08-22T13:17:25.018Z,31.70
2022-08-22T13:20:06.223Z,31.70
2022-08-22T13:22:35.866Z,31.90
2022-08-22T13:25:26.502Z,33.40
2022-08-22T13:30:40.631Z,32.40
2022-08-22T13:33:09.515Z,32.30
2022-08-22T13:35:55.315Z,33.50
2022-08-22T13:38:46.482Z,33.80
2022-08-22T13:41:18.853Z,34.40
2022-08-22T13:43:59.737Z,33.90
2022-08-22T13:46:28.212Z,34.30
2022-08-22T13:51:46.657Z,35.30
2022-08-22T13:54:16.420Z,36.30
2022-08-22T13:56:47.814Z,34.70
2022-08-22T14:02:15.217Z,32.10
2022-08-22T14:04:45.923Z,33.10
2022-08-22T14:07:31.651Z,33.40
2022-08-22T14:10:14.688Z,33.60
2022-08-22T14:12:50.259Z,33.70
2022-08-22T14:15:23.592Z,33.90
2022-08-22T14:17:52.158Z,32.90
2022-08-22T14:20:32.532Z,33.00
2022-08-22T14:23:04.644Z,33.00
2022-08-22T14:25:34.726Z,33.00
2022-08-22T14:28:06.508Z,32.20
2022-08-22T14:30:59.379Z,31.90
2022-08-22T14:33:39.863Z,31.60
2022-08-22T14:36:25.842Z,32.00
2022-08-22T14:39:19.581Z,32.00
2022-08-22T14:41:56.313Z,32.10
2022-08-22T14:44:44.432Z,32.70
2022-08-22T14:47:43.343Z,34.50
2022-08-22T14:50:12.053Z,33.20
2022-08-22T14:52:41.179Z,32.30
2022-08-22T14:55:20.671Z,31.30
2022-08-22T14:57:54.215Z,31.20
2022-08-22T15:00:26.043Z,31.60
2022-08-22T15:05:22.752Z,32.90
2022-08-22T15:07:55.106Z,34.40
2022-08-22T15:12:56.135Z,35.10
2022-08-22T15:18:27.716Z,35.80
2022-08-22T15:21:09.666Z,36.30
2022-08-22T15:23:45.429Z,36.10
2022-08-22T15:26:31.469Z,36.90
2022-08-22T15:31:28.398Z,35.80
2022-08-22T15:39:00.528Z,37.10
2022-08-22T15:46:40.598Z,36.30
2022-08-22T15:49:21.195Z,36.10
2022-08-22T15:54:25.382Z,35.80
2022-08-22T15:56:52.878Z,35.40
2022-08-22T15:59:25.573Z,35.50
2022-08-22T16:01:55.443Z,35.60
2022-08-22T16:04:54.793Z,35.50
2022-08-22T16:07:25.739Z,34.60
2022-08-22T16:09:54.107Z,35.40
2022-08-22T16:12:38.632Z,34.10
2022-08-22T16:15:25.414Z,33.60
2022-08-22T16:17:53.223Z,33.40
2022-08-22T16:20:20.375Z,33.40
2022-08-22T16:22:59.147Z,32.90
2022-08-22T16:27:54.952Z,32.40
2022-08-22T16:30:30.829Z,32.90
2022-08-22T16:32:57.595Z,31.80
2022-08-22T16:37:51.551Z,31.80
2022-08-22T16:40:21.457Z,31.80
2022-08-22T16:47:52.281Z,29.10
2022-08-22T16:50:27.934Z,28.30
2022-08-22T16:53:14.814Z,27.40
2022-08-22T16:55:42.951Z,27.20
2022-08-22T16:58:35.810Z,27.10
2022-08-22T17:01:43.315Z,27.50
2022-08-22T17:04:24.471Z,27.00
2022-08-22T17:09:33.569Z,26.60
2022-08-22T17:12:09.680Z,26.60
2022-08-22T17:14:48.875Z,26.30
2022-08-22T17:17:28.070Z,26.30
2022-08-22T17:19:57.953Z,26.10
2022-08-22T17:25:08.954Z,25.90
2022-08-22T17:27:40.515Z,25.80
2022-08-22T17:30:07.532Z,25.60
2022-08-22T17:32:44.089Z,25.50
2022-08-22T17:35:21.661Z,25.60
2022-08-22T17:38:13.305Z,25.40
2022-08-22T17:40:39.981Z,25.20
2022-08-22T17:43:13.110Z,25.50
2022-08-22T17:48:12.163Z,24.90
2022-08-22T17:50:52.869Z,24.80
2022-08-22T17:53:39.013Z,24.70
2022-08-22T17:56:12.403Z,24.50
2022-08-22T17:58:45.392Z,24.40
2022-08-22T18:01:21.587Z,24.30
2022-08-22T18:03:52.966Z,24.20
2022-08-22T18:11:43.107Z,23.90
2022-08-22T18:14:21.981Z,23.80
2022-08-22T18:19:32.876Z,23.60
2022-08-22T18:22:22.032Z,23.40
2022-08-22T18:24:49.492Z,23.30
2022-08-22T18:27:34.208Z,24.20
2022-08-22T18:30:01.854Z,23.90
2022-08-22T18:32:35.163Z,24.40
2022-08-22T18:35:08.117Z,23.00
2022-08-22T18:37:35.536Z,22.90
2022-08-22T18:40:06.042Z,22.70
2022-08-22T18:42:32.696Z,23.60
2022-08-22T18:44:59.368Z,23.30
2022-08-22T18:47:27.728Z,22.60
2022-08-22T18:49:55.559Z,23.50
2022-08-22T18:52:33.054Z,23.60
2022-08-22T18:54:59.719Z,23.50
2022-08-22T18:57:30.470Z,22.10
2022-08-22T19:00:17.830Z,22.10
2022-08-22T19:03:00.752Z,22.00
2022-08-22T19:05:46.352Z,21.60
2022-08-22T19:08:19.198Z,21.80
2022-08-22T19:10:55.053Z,21.70
2022-08-22T19:13:36.922Z,21.70
2022-08-22T19:16:26.973Z,21.60
2022-08-22T19:19:17.214Z,21.50
2022-08-22T19:22:21.798Z,21.50
2022-08-22T19:25:09.927Z,21.50
2022-08-22T19:27:40.476Z,21.40
2022-08-22T19:30:26.046Z,21.70
2022-08-22T19:32:59.200Z,21.20
2022-08-22T19:35:28.720Z,21.10
2022-08-22T19:38:02.717Z,20.00
2022-08-22T19:40:50.150Z,21.00
2022-08-22T19:43:36.889Z,21.10
2022-08-22T19:46:06.138Z,21.00
2022-08-22T19:51:08.459Z,20.60
2022-08-22T19:53:38.782Z,20.60
2022-08-22T19:56:05.416Z,20.50
2022-08-22T19:58:39.259Z,20.40
2022-08-22T20:01:25.700Z,18.80
2022-08-22T20:03:58.808Z,20.40
2022-08-22T20:06:45.279Z,20.30
2022-08-22T20:09:30.803Z,21.70
2022-08-22T20:12:05.630Z,20.30
2022-08-22T20:14:34.497Z,20.00
2022-08-22T20:22:38.851Z,20.00
2022-08-22T20:25:17.213Z,19.90
2022-08-22T20:28:01.958Z,20.50
2022-08-22T20:30:31.037Z,19.50
2022-08-22T20:33:01.930Z,19.20
2022-08-22T20:35:43.936Z,20.70
2022-08-22T20:38:13.032Z,19.40
2022-08-22T20:40:56.180Z,19.50
2022-08-22T20:43:31.778Z,18.80
2022-08-22T20:45:59.526Z,19.60
2022-08-22T20:48:33.198Z,20.40
2022-08-22T20:51:03.873Z,18.00
2022-08-22T20:53:31.052Z,19.40
2022-08-22T20:55:57.709Z,19.10
2022-08-22T20:58:26.087Z,18.20
2022-08-22T21:00:54.762Z,20.50
2022-08-22T21:03:39.873Z,20.20
2022-08-22T21:06:12.152Z,19.30
2022-08-22T21:08:39.409Z,19.30
2022-08-22T21:11:25.190Z,18.20
2022-08-22T21:13:52.279Z,18.40
2022-08-22T21:16:19.044Z,17.90
2022-08-22T21:18:49.979Z,17.90
2022-08-22T21:21:19.751Z,17.80
2022-08-22T21:23:47.799Z,17.40
2022-08-22T21:26:23.682Z,17.50
2022-08-22T21:28:56.386Z,17.40
2022-08-22T21:31:24.726Z,17.40
2022-08-22T21:33:53.068Z,16.80
2022-08-22T21:36:25.208Z,16.40
2022-08-22T21:39:00.032Z,17.70
2022-08-22T21:41:46.898Z,17.70
2022-08-22T21:44:39.950Z,17.10
2022-08-22T21:47:30.723Z,16.90
2022-08-22T21:50:13.446Z,16.90
2022-08-22T21:52:41.622Z,17.40
2022-08-22T21:55:16.352Z,16.50
2022-08-22T21:57:43.429Z,17.00
2022-08-22T22:00:30.175Z,16.60
2022-08-22T22:03:01.064Z,17.50
2022-08-22T22:05:29.660Z,17.30
2022-08-22T22:07:56.445Z,16.40
2022-08-22T22:10:23.445Z,15.80
2022-08-22T22:12:52.097Z,16.30
2022-08-22T22:15:21.425Z,16.50
2022-08-22T22:17:48.079Z,16.60
2022-08-22T22:20:16.242Z,17.40
2022-08-22T22:22:46.448Z,16.80
2022-08-22T22:25:39.023Z,16.10
2022-08-22T22:28:02.818Z,16.50
2022-08-22T22:30:29.631Z,17.00
2022-08-22T22:32:56.267Z,16.50
2022-08-22T22:37:50.016Z,16.20
2022-08-22T22:40:16.751Z,15.70
2022-08-22T22:42:43.432Z,15.90
2022-08-22T22:45:10.816Z,16.30
2022-08-22T22:47:37.587Z,16.40
2022-08-22T22:50:04.737Z,16.00
2022-08-22T22:52:31.350Z,16.00
2022-08-22T22:54:57.991Z,15.00
2022-08-22T22:57:25.668Z,14.30
2022-08-22T22:59:52.426Z,14.50
2022-08-22T23:02:20.411Z,15.50
2022-08-22T23:04:49.836Z,15.60
2022-08-22T23:07:18.320Z,15.60
2022-08-22T23:09:45.370Z,16.30
2022-08-22T23:12:12.598Z,18.00
2022-08-22T23:14:39.407Z,15.60
2022-08-22T23:17:06.038Z,15.50
2022-08-22T23:19:32.813Z,14.60
2022-08-22T23:21:59.903Z,14.90
2022-08-22T23:24:29.225Z,16.50
2022-08-22T23:26:56.302Z,16.20
2022-08-22T23:29:23.316Z,16.40
2022-08-22T23:34:18.573Z,15.10
2022-08-22T23:36:46.293Z,14.00
